Time;durP1;ratioP1;P1;durP2;ratioP2;P2;SDS_P1;SDS_P2;PMS_P1;PMS_P2;Temp;Humidity;BMP_temperature;BMP_pressure;BME280_temperature;BME280_humidity;BME280_pressure;Samples;Min_cycle;Max_cycle;Signal;HPM_P1;HPM_P2
2023/02/11 00:00:14;;;;;;;68.40;33.60;;;39.00;2201.60;;;;;;5050273;28;20079;-56
2023/02/11 00:02:40;;;;;;;81.95;40.15;;;39.30;2201.60;;;;;;5049993;28;20394;-57
2023/02/11 00:05:05;;;;;;;208.48;88.57;;;64.10;2201.60;;;;;;5050262;28;20031;-68
2023/02/11 00:07:32;;;;;;;92.18;42.75;;;64.00;2201.60;;;;;;5050179;28;20115;-56
2023/02/11 00:09:58;;;;;;;82.57;40.97;;;39.20;2201.60;;;;;;5049990;28;20036;-56
2023/02/11 00:12:24;;;;;;;60.67;35.33;;;39.00;2201.60;;;;;;5050017;28;20112;-67
2023/02/11 00:14:50;;;;;;;63.03;33.08;;;39.00;2201.60;;;;;;5050030;28;20033;-65
2023/02/11 00:17:16;;;;;;;61.47;34.22;;;39.20;2201.60;;;;;;5050169;28;20022;-58
2023/02/11 00:19:42;;;;;;;160.73;81.97;;;39.10;2201.60;;;;;;5050162;28;20498;-55
2023/02/11 00:22:07;;;;;;;141.90;66.40;;;38.90;2201.60;;;;;;5049739;28;20044;-56
2023/02/11 00:24:35;;;;;;;81.03;42.60;;;38.70;2201.60;;;;;;5049740;28;20059;-69
2023/02/11 00:27:01;;;;;;;71.30;40.15;;;38.90;2201.60;;;;;;5050039;28;20021;-55
2023/02/11 00:29:27;;;;;;;133.73;69.22;;;38.70;2201.60;;;;;;5049840;28;20489;-57
2023/02/11 00:31:53;;;;;;;183.27;90.68;;;38.60;2201.60;;;;;;5050248;28;20025;-62
2023/02/11 00:34:18;;;;;;;246.68;123.50;;;38.70;2201.60;;;;;;5049711;28;20435;-57
2023/02/11 00:36:44;;;;;;;148.23;80.43;;;38.60;2201.60;;;;;;5050214;28;20031;-65
2023/02/11 00:39:10;;;;;;;140.32;74.53;;;38.50;2201.60;;;;;;5032170;28;20402;-63
2023/02/11 00:41:36;;;;;;;68.35;37.15;;;38.50;2201.60;;;;;;5049729;28;20493;-55
2023/02/11 00:44:01;;;;;;;319.00;125.75;;;38.80;2201.60;;;;;;5049585;28;20029;-56
2023/02/11 00:46:27;;;;;;;329.30;137.63;;;38.70;2201.60;;;;;;5049745;28;20368;-57
2023/02/11 00:48:56;;;;;;;98.60;46.25;;;38.60;2201.60;;;;;;5050247;28;20096;-54
2023/02/11 00:51:24;;;;;;;82.22;41.95;;;38.60;2201.60;;;;;;5053438;28;20360;-56
2023/02/11 00:53:49;;;;;;;62.53;32.38;;;38.60;2201.60;;;;;;5053505;28;20037;-56
2023/02/11 00:56:15;;;;;;;81.18;42.13;;;38.50;2201.60;;;;;;5053678;28;20079;-69
2023/02/11 00:58:41;;;;;;;148.13;75.60;;;38.50;2201.60;;;;;;5053531;28;20033;-56
2023/02/11 01:01:06;;;;;;;132.88;67.03;;;38.50;2201.60;;;;;;5034697;28;20061;-56
2023/02/11 01:03:33;;;;;;;175.43;91.63;;;38.50;2201.60;;;;;;5053154;28;20441;-56
2023/02/11 01:05:59;;;;;;;247.80;115.03;;;38.50;2201.60;;;;;;5052965;28;20074;-55
2023/02/11 01:08:24;;;;;;;130.38;61.72;;;38.60;2201.60;;;;;;5053356;28;20033;-69
2023/02/11 01:10:55;;;;;;;137.50;69.95;;;38.50;2201.60;;;;;;5052968;28;20471;-69
2023/02/11 01:13:21;;;;;;;81.40;45.25;;;38.50;2201.60;;;;;;5053420;28;20049;-69
2023/02/11 01:15:47;;;;;;;74.20;39.80;;;38.60;2201.60;;;;;;5052773;28;20056;-55
2023/02/11 01:18:13;;;;;;;75.32;38.63;;;38.70;2201.60;;;;;;5053215;28;20079;-55
2023/02/11 01:20:38;;;;;;;51.42;29.60;;;38.70;2201.60;;;;;;5052961;28;20021;-57
2023/02/11 01:23:04;;;;;;;59.75;31.90;;;39.00;2201.60;;;;;;5052664;28;20050;-57
2023/02/11 01:25:30;;;;;;;128.95;57.30;;;38.90;2201.60;;;;;;5052517;28;20031;-55
2023/02/11 01:27:55;;;;;;;74.97;35.65;;;38.90;2201.60;;;;;;5052886;28;20025;-56
2023/02/11 01:30:21;;;;;;;97.75;46.97;;;39.00;2201.60;;;;;;5052463;28;20057;-55
2023/02/11 01:32:47;;;;;;;73.68;39.33;;;38.90;2201.60;;;;;;5052754;28;20025;-56
2023/02/11 01:35:12;;;;;;;312.70;125.43;;;38.90;2201.60;;;;;;5052960;28;20029;-55
2023/02/11 01:37:38;;;;;;;92.35;42.53;;;39.00;2201.60;;;;;;5052585;28;20464;-68
2023/02/11 01:40:10;;;;;;;164.68;70.18;;;39.00;2201.60;;;;;;5052875;28;20335;-55
2023/02/11 01:42:35;;;;;;;63.63;30.25;;;39.10;2201.60;;;;;;5052215;28;20056;-57
2023/02/11 01:45:40;;;;;;;142.43;58.13;;;39.10;2201.60;;;;;;5052174;28;20379;-56
2023/02/11 01:48:06;;;;;;;74.60;31.77;;;39.10;2201.60;;;;;;5052412;28;20030;-55
2023/02/11 01:50:33;;;;;;;63.10;32.88;;;39.20;2201.60;;;;;;5052364;28;20029;-62
2023/02/11 01:57:20;;;;;;;102.38;47.75;;;39.20;2201.60;;;;;;5052066;28;20021;-56
2023/02/11 01:58:34;;;;;;;131.30;60.38;;;39.10;2201.60;;;;;;5052233;28;20050;-56
2023/02/11 02:01:03;;;;;;;67.35;30.65;;;39.20;2201.60;;;;;;5052243;28;20107;-56
2023/02/11 02:03:32;;;;;;;81.65;37.60;;;64.10;2201.60;;;;;;5052016;28;20040;-57
2023/02/11 02:06:18;;;;;;;128.02;53.25;;;64.20;2201.60;;;;;;5052096;28;20037;-56
2023/02/11 02:09:06;;;;;;;116.07;49.97;;;64.10;2201.60;;;;;;5052072;28;20051;-58
2023/02/11 02:11:31;;;;;;;48.88;27.35;;;64.10;2201.60;;;;;;5052166;28;20037;-68
2023/02/11 02:13:58;;;;;;;55.15;26.55;;;64.10;2201.60;;;;;;5052114;28;20028;-56
2023/02/11 02:16:30;;;;;;;45.60;25.73;;;64.10;2201.60;;;;;;5051896;28;20112;-56
2023/02/11 02:19:36;;;;;;;226.03;103.03;;;64.00;2201.60;;;;;;5051826;28;20029;-56
2023/02/11 02:22:31;;;;;;;176.95;80.28;;;39.20;2201.60;;;;;;4990470;28;20072;-55
2023/02/11 02:25:11;;;;;;;141.15;64.18;;;39.20;2201.60;;;;;;4990082;28;20511;-56
2023/02/11 02:28:16;;;;;;;64.85;32.67;;;39.10;2201.60;;;;;;4990288;28;20030;-57
2023/02/11 02:30:50;;;;;;;169.55;75.72;;;39.10;2201.60;;;;;;4990382;28;20034;-68
2023/02/11 02:33:34;;;;;;;138.95;63.05;;;39.10;2201.60;;;;;;4990210;28;20085;-57
2023/02/11 02:36:31;;;;;;;73.90;33.72;;;39.10;2201.60;;;;;;4990123;28;20081;-56
2023/02/11 02:39:06;;;;;;;70.88;38.70;;;39.00;2201.60;;;;;;4989785;28;20034;-56
2023/02/11 02:41:34;;;;;;;112.00;52.00;;;39.00;2201.60;;;;;;4990005;28;20035;-56
2023/02/11 02:44:00;;;;;;;84.68;42.10;;;39.10;2201.60;;;;;;5029179;28;20045;-56
2023/02/11 02:46:29;;;;;;;48.30;26.20;;;39.10;2201.60;;;;;;5029115;28;20455;-59
2023/02/11 02:48:55;;;;;;;78.28;40.88;;;39.10;2201.60;;;;;;5029501;28;20026;-56
2023/02/11 02:51:39;;;;;;;53.10;29.33;;;39.10;2201.60;;;;;;5029350;28;20549;-66
2023/02/11 02:54:23;;;;;;;53.42;30.83;;;39.20;2201.60;;;;;;5028938;28;20419;-58
2023/02/11 02:57:07;;;;;;;;;;;39.10;2201.60;;;;;;5036334;28;20039;-56
2023/02/11 03:00:08;;;;;;;51.70;29.50;;;39.10;2201.60;;;;;;5071348;28;19904;-59
2023/02/11 03:02:39;;;;;;;62.75;34.55;;;39.20;2201.60;;;;;;4970373;28;20042;-55
2023/02/11 03:05:28;;;;;;;47.17;26.20;;;39.20;2201.60;;;;;;5054084;28;20039;-55
2023/02/11 03:08:17;;;;;;;62.58;34.45;;;64.00;2201.60;;;;;;5070889;28;20410;-55
2023/02/11 03:10:50;;;;;;;153.52;71.25;;;64.00;2201.60;;;;;;5071127;28;20029;-55
2023/02/11 03:13:18;;;;;;;357.67;156.63;;;39.30;2201.60;;;;;;5070372;28;20024;-69
2023/02/11 03:15:47;;;;;;;297.45;123.95;;;64.00;2201.60;;;;;;5070759;28;20043;-56
2023/02/11 03:18:17;;;;;;;334.75;139.93;;;64.00;2201.60;;;;;;5072082;28;20074;-64
2023/02/11 03:20:47;;;;;;;415.52;179.32;;;64.00;2201.60;;;;;;5071944;28;20063;-71
2023/02/11 03:23:25;;;;;;;211.23;85.93;;;39.30;2201.60;;;;;;5071585;28;20493;-59
2023/02/11 03:25:56;;;;;;;59.65;29.23;;;39.20;2201.60;;;;;;5071948;28;20055;-70
2023/02/11 03:28:38;;;;;;;76.40;35.45;;;39.30;2201.60;;;;;;5071954;28;20419;-61
2023/02/11 03:31:31;;;;;;;97.60;46.78;;;64.00;2201.60;;;;;;5072295;28;20020;-63
2023/02/11 03:34:07;;;;;;;97.93;40.03;;;64.00;2201.60;;;;;;5071553;28;20363;-56
2023/02/11 03:37:00;;;;;;;613.47;286.70;;;64.00;2201.60;;;;;;5070609;28;20087;-55
2023/02/11 03:39:33;;;;;;;140.38;55.47;;;64.00;2201.60;;;;;;5070829;28;20033;-63
2023/02/11 03:42:01;;;;;;;49.58;22.98;;;64.10;2201.60;;;;;;5066529;28;20127;-56
2023/02/11 03:44:33;;;;;;;70.13;32.63;;;64.30;2201.60;;;;;;5050588;28;20032;-56
2023/02/11 03:47:02;;;;;;;249.82;101.13;;;64.50;2201.60;;;;;;5050305;28;20107;-55
2023/02/11 03:49:29;;;;;;;456.67;189.77;;;64.40;2201.60;;;;;;5050181;28;20025;-56
2023/02/11 03:51:55;;;;;;;577.33;253.70;;;64.40;2201.60;;;;;;5050378;28;20052;-69
2023/02/11 03:54:28;;;;;;;464.85;176.57;;;64.20;2201.60;;;;;;5050114;28;20021;-56
2023/02/11 03:56:56;;;;;;;238.52;87.93;;;64.20;2201.60;;;;;;5050575;28;20053;-55
2023/02/11 03:59:22;;;;;;;254.80;97.40;;;64.20;2201.60;;;;;;5050324;28;20043;-55
2023/02/11 04:01:48;;;;;;;125.85;53.92;;;64.30;2201.60;;;;;;5064365;28;20120;-55
2023/02/11 04:04:13;;;;;;;88.03;40.20;;;64.20;2201.60;;;;;;5070556;28;20036;-56
2023/02/11 04:06:39;;;;;;;57.28;28.67;;;64.20;2201.60;;;;;;5070030;28;20107;-55
2023/02/11 04:09:05;;;;;;;47.95;24.73;;;64.30;2201.60;;;;;;5070510;28;20025;-55
2023/02/11 04:11:31;;;;;;;50.80;28.10;;;64.30;2201.60;;;;;;5070261;28;20036;-56
2023/02/11 04:13:57;;;;;;;68.65;33.58;;;64.30;2201.60;;;;;;5070139;28;20517;-56
2023/02/11 04:16:23;;;;;;;50.70;27.50;;;64.30;2201.60;;;;;;5070307;28;20037;-68
2023/02/11 04:18:48;;;;;;;54.83;31.63;;;64.20;2201.60;;;;;;5069918;28;20029;-56
2023/02/11 04:21:14;;;;;;;62.00;34.45;;;64.30;2201.60;;;;;;5070194;28;20037;-58
2023/02/11 04:23:40;;;;;;;50.67;28.02;;;64.20;2201.60;;;;;;5069995;28;20066;-56
2023/02/11 04:26:06;;;;;;;38.05;21.23;;;64.50;2201.60;;;;;;5073843;28;20104;-55
2023/02/11 04:28:32;;;;;;;44.95;25.05;;;64.60;2201.60;;;;;;5074136;28;20039;-55
2023/02/11 04:30:57;;;;;;;58.00;32.15;;;64.40;2201.60;;;;;;5073676;28;20028;-56
2023/02/11 04:33:23;;;;;;;57.80;30.85;;;64.30;2201.60;;;;;;5073938;28;20059;-71
2023/02/11 04:35:49;;;;;;;47.70;27.25;;;64.40;2201.60;;;;;;5073674;28;20030;-55
2023/02/11 04:38:15;;;;;;;45.80;25.30;;;64.40;2201.60;;;;;;5074215;28;20460;-55
2023/02/11 04:40:41;;;;;;;51.45;26.67;;;64.60;2201.60;;;;;;5073632;28;20563;-64
2023/02/11 04:43:07;;;;;;;46.33;30.25;;;64.60;2201.60;;;;;;5073109;28;20144;-56
2023/02/11 04:45:33;;;;;;;44.80;25.85;;;64.60;2201.60;;;;;;5073585;28;20031;-56
2023/02/11 04:48:00;;;;;;;42.92;22.98;;;64.50;2201.60;;;;;;5073335;28;20039;-56
2023/02/11 04:50:25;;;;;;;51.35;28.52;;;64.80;2201.60;;;;;;5073965;28;20028;-55
2023/02/11 04:52:51;;;;;;;48.75;23.85;;;64.80;2201.60;;;;;;5073503;28;20386;-69
2023/02/11 04:55:17;;;;;;;41.42;23.65;;;64.80;2201.60;;;;;;5073509;28;20031;-56
2023/02/11 04:57:42;;;;;;;48.17;26.67;;;89.60;2201.60;;;;;;5073632;28;20116;-55
2023/02/11 05:00:09;;;;;;;42.30;25.55;;;64.90;2201.60;;;;;;5073493;28;20024;-58
2023/02/11 05:02:35;;;;;;;51.90;28.88;;;64.90;2201.60;;;;;;5073448;28;20033;-55
2023/02/11 05:05:01;;;;;;;45.97;26.63;;;64.70;2201.60;;;;;;5072439;28;20032;-57
2023/02/11 05:07:27;;;;;;;40.92;25.50;;;64.80;2201.60;;;;;;5073101;28;20082;-56
2023/02/11 05:09:52;;;;;;;47.08;25.52;;;64.90;2201.60;;;;;;5073160;28;20031;-56
2023/02/11 05:12:18;;;;;;;49.47;27.42;;;89.60;2201.60;;;;;;5072872;28;20029;-55
2023/02/11 05:14:44;;;;;;;56.40;28.52;;;89.60;2201.60;;;;;;5073220;28;20086;-70
2023/02/11 05:17:09;;;;;;;39.10;23.60;;;64.90;2201.60;;;;;;5072917;28;20385;-55
2023/02/11 05:19:35;;;;;;;48.85;27.17;;;89.70;2176.00;;;;;;5073356;28;20029;-55
2023/02/11 05:22:01;;;;;;;44.25;24.27;;;89.60;2201.60;;;;;;5073228;28;20351;-55
2023/02/11 05:24:26;;;;;;;39.97;22.75;;;89.60;2201.60;;;;;;5072621;28;20032;-68
2023/02/11 05:26:52;;;;;;;42.70;25.23;;;89.70;2176.00;;;;;;5073141;28;20529;-56
2023/02/11 05:29:19;;;;;;;58.17;30.50;;;89.80;2176.00;;;;;;5072546;28;20036;-59
2023/02/11 05:31:44;;;;;;;45.33;26.20;;;89.60;2201.60;;;;;;5072738;28;20028;-56
2023/02/11 05:34:10;;;;;;;41.70;23.70;;;64.90;2201.60;;;;;;5072662;28;20089;-55
2023/02/11 05:36:36;;;;;;;71.75;38.63;;;64.90;2201.60;;;;;;5072488;28;20074;-57
2023/02/11 05:39:02;;;;;;;164.07;80.90;;;89.60;2201.60;;;;;;5071865;28;20074;-71
2023/02/11 05:41:27;;;;;;;163.40;84.53;;;64.90;2201.60;;;;;;5072448;28;20039;-54
2023/02/11 05:43:53;;;;;;;57.75;33.45;;;89.60;2201.60;;;;;;5072394;28;20045;-55
2023/02/11 05:46:19;;;;;;;51.85;29.40;;;89.60;2201.60;;;;;;5072475;28;20048;-55
2023/02/11 05:48:45;;;;;;;52.58;26.40;;;89.60;2201.60;;;;;;5072762;28;20064;-65
2023/02/11 05:51:10;;;;;;;73.82;39.72;;;64.90;2201.60;;;;;;5072260;28;20025;-58
2023/02/11 05:53:36;;;;;;;73.93;39.22;;;89.60;2201.60;;;;;;5072809;28;20086;-60
2023/02/11 05:56:02;;;;;;;89.35;50.95;;;89.70;2176.00;;;;;;5072574;28;20036;-57
2023/02/11 05:58:28;;;;;;;70.80;36.83;;;90.10;2176.00;;;;;;5072137;28;20021;-56
2023/02/11 06:00:53;;;;;;;72.10;37.90;;;90.20;2176.00;;;;;;5072321;28;20048;-60
2023/02/11 06:03:19;;;;;;;61.05;33.53;;;90.10;2176.00;;;;;;5072219;28;20032;-56
2023/02/11 06:05:45;;;;;;;120.00;63.88;;;89.80;2176.00;;;;;;5072445;28;20496;-70
2023/02/11 06:08:11;;;;;;;100.10;53.92;;;89.60;2201.60;;;;;;5072186;28;20028;-55
2023/02/11 06:10:38;;;;;;;66.60;37.53;;;64.80;2201.60;;;;;;5071840;28;20025;-56
2023/02/11 06:13:03;;;;;;;53.08;28.20;;;64.80;2201.60;;;;;;5063003;28;20470;-57
2023/02/11 06:15:29;;;;;;;55.67;29.35;;;64.80;2201.60;;;;;;5033570;28;20031;-59
2023/02/11 06:17:55;;;;;;;60.47;30.10;;;64.80;2201.60;;;;;;5031125;28;20057;-58
2023/02/11 06:20:21;;;;;;;58.25;29.80;;;64.70;2201.60;;;;;;5035887;28;20059;-60
2023/02/11 06:22:47;;;;;;;56.67;28.20;;;64.60;2201.60;;;;;;5047464;28;20040;-58
2023/02/11 06:25:13;;;;;;;86.05;31.80;;;64.20;2201.60;;;;;;5048555;28;20017;-58
2023/02/11 06:27:39;;;;;;;72.75;41.80;;;64.50;2201.60;;;;;;5048635;28;20035;-58
2023/02/11 06:30:06;;;;;;;70.38;37.55;;;64.40;2201.60;;;;;;5048587;28;20075;-58
2023/02/11 06:32:32;;;;;;;109.93;54.83;;;64.40;2201.60;;;;;;5048699;28;20746;-56
2023/02/11 06:34:59;;;;;;;121.45;65.03;;;64.20;2201.60;;;;;;5047878;28;20108;-59
2023/02/11 06:37:24;;;;;;;78.88;49.67;;;64.10;2201.60;;;;;;5045023;28;20353;-58
2023/02/11 06:39:50;;;;;;;87.07;43.80;;;64.10;2201.60;;;;;;5038131;28;20421;-58
2023/02/11 06:42:16;;;;;;;71.07;40.58;;;39.30;2201.60;;;;;;5047698;28;20049;-58
2023/02/11 06:44:41;;;;;;;123.72;67.65;;;39.20;2201.60;;;;;;5048500;28;20025;-57
2023/02/11 06:47:07;;;;;;;118.40;63.08;;;39.10;2201.60;;;;;;5047036;28;20056;-57
2023/02/11 06:49:33;;;;;;;181.02;88.15;;;38.90;2201.60;;;;;;5048425;28;20373;-59
2023/02/11 06:51:58;;;;;;;124.10;61.38;;;38.80;2201.60;;;;;;5048125;28;20021;-58
2023/02/11 06:54:24;;;;;;;69.72;38.97;;;38.80;2201.60;;;;;;5048094;28;20021;-58
2023/02/11 06:56:50;;;;;;;48.33;24.30;;;38.60;2201.60;;;;;;5048015;28;20033;-58
2023/02/11 06:59:17;;;;;;;38.35;22.80;;;38.60;2201.60;;;;;;5048312;28;20515;-58
2023/02/11 07:01:43;;;;;;;44.63;25.40;;;38.70;2201.60;;;;;;5047649;28;20057;-58
2023/02/11 07:04:09;;;;;;;51.38;28.30;;;38.70;2201.60;;;;;;5047805;28;20040;-57
2023/02/11 07:06:36;;;;;;;42.88;27.83;;;38.50;2201.60;;;;;;5048051;28;20028;-58
2023/02/11 07:09:03;;;;;;;87.40;46.08;;;38.40;2201.60;;;;;;5047951;28;20029;-58
2023/02/11 07:11:30;;;;;;;137.05;74.47;;;13.70;2201.60;;;;;;5047286;28;20044;-58
2023/02/11 07:14:00;;;;;;;108.90;57.97;;;38.40;2201.60;;;;;;5046514;28;20025;-58
2023/02/11 07:16:26;;;;;;;67.18;36.58;;;13.60;2201.60;;;;;;5027943;28;20037;-59
2023/02/11 07:18:51;;;;;;;67.35;34.95;;;13.40;2201.60;;;;;;5028057;28;20029;-59
2023/02/11 07:21:20;;;;;;;103.93;55.63;;;13.20;2201.60;;;;;;5027832;28;20115;-58
2023/02/11 07:23:47;;;;;;;159.90;98.22;;;13.30;2201.60;;;;;;5027787;28;20042;-59
2023/02/11 07:26:15;;;;;;;154.20;92.82;;;13.60;2201.60;;;;;;5027350;28;20112;-58
2023/02/11 07:28:41;;;;;;;268.20;147.73;;;13.60;2201.60;;;;;;5027484;28;20474;-59
2023/02/11 07:31:13;;;;;;;258.00;138.43;;;13.40;2201.60;;;;;;5027553;28;20100;-59
2023/02/11 07:33:40;;;;;;;163.73;89.55;;;13.20;2201.60;;;;;;5027475;28;20032;-58
2023/02/11 07:36:08;;;;;;;150.63;86.20;;;13.10;2201.60;;;;;;5027701;28;20026;-58
2023/02/11 07:38:36;;;;;;;155.45;88.10;;;13.00;2201.60;;;;;;5027561;28;20501;-59
2023/02/11 07:41:04;;;;;;;130.93;76.93;;;12.90;2201.60;;;;;;5027200;28;20450;-58
2023/02/11 07:43:31;;;;;;;128.88;67.75;;;12.90;2201.60;;;;;;5027261;28;20068;-58
2023/02/11 07:45:57;;;;;;;116.22;70.82;;;13.00;2201.60;;;;;;5027514;28;20021;-60
2023/02/11 07:48:23;;;;;;;136.48;89.00;;;0.00;2201.60;;;;;;5027659;28;20107;-57
2023/02/11 07:50:49;;;;;;;159.85;96.63;;;0.50;2201.60;;;;;;5027315;28;20475;-58
2023/02/11 07:53:15;;;;;;;148.85;95.95;;;51.20;2227.20;;;;;;5027162;28;20087;-59
2023/02/11 07:55:42;;;;;;;119.93;75.85;;;102.50;2227.20;;;;;;5027350;28;20029;-58
2023/02/11 07:58:08;;;;;;;86.97;56.72;;;153.60;2150.40;;;;;;5027942;28;20034;-59
2023/02/11 08:00:34;;;;;;;89.55;63.13;;;179.20;2022.40;;;;;;5031563;28;20691;-58
2023/02/11 08:02:59;;;;;;;169.05;123.68;;;179.50;1971.20;;;;;;5031448;28;20033;-60
2023/02/11 08:05:25;;;;;;;138.10;94.45;;;179.60;1971.20;;;;;;5031277;28;20026;-58
2023/02/11 08:07:52;;;;;;;98.20;67.63;;;204.90;1894.40;;;;;;5039296;28;20033;-59
2023/02/11 08:10:18;;;;;;;92.63;61.15;;;205.40;1868.80;;;;;;5051180;28;20028;-63
2023/02/11 08:12:44;;;;;;;107.97;80.07;;;230.90;1792.00;;;;;;5051091;28;20494;-61
2023/02/11 08:15:10;;;;;;;220.15;158.88;;;281.60;1715.20;;;;;;5051176;28;20222;-61
2023/02/11 08:17:36;;;;;;;197.07;154.50;;;231.30;1689.60;;;;;;5039570;28;20032;-60
2023/02/11 08:20:03;;;;;;;177.48;141.93;;;281.90;1638.40;;;;;;5033003;28;20033;-62
2023/02/11 08:22:33;;;;;;;168.27;135.20;;;281.90;1612.80;;;;;;5031652;28;20037;-61
2023/02/11 08:24:59;;;;;;;174.75;141.75;;;308.10;1536.00;;;;;;5031661;28;20108;-61
2023/02/11 08:27:26;;;;;;;167.57;145.18;;;358.80;1484.80;;;;;;5033186;28;20137;-63
2023/02/11 08:29:55;;;;;;;174.73;149.43;;;384.60;1408.00;;;;;;5051069;28;20427;-62
2023/02/11 08:32:24;;;;;;;180.80;152.52;;;358.50;1459.20;;;;;;5037820;28;20033;-62
2023/02/11 08:34:51;;;;;;;239.20;203.52;;;359.20;1408.00;;;;;;5035020;28;20028;-63
2023/02/11 08:37:17;;;;;;;131.77;117.25;;;358.50;1459.20;;;;;;5042057;28;20033;-62
2023/02/11 08:39:43;;;;;;;125.28;111.55;;;358.70;1433.60;;;;;;5041980;28;20044;-64
2023/02/11 08:42:09;;;;;;;131.68;112.55;;;384.70;1382.40;;;;;;5050705;28;20053;-62
2023/02/11 08:44:35;;;;;;;153.77;128.98;;;409.90;1356.80;;;;;;5050898;28;20488;-61
2023/02/11 08:47:00;;;;;;;157.23;130.02;;;384.70;1331.20;;;;;;5051199;28;20029;-61
2023/02/11 08:49:26;;;;;;;166.63;148.27;;;410.10;1331.20;;;;;;5051470;28;20048;-62
2023/02/11 08:51:53;;;;;;;166.32;145.23;;;409.60;1331.20;;;;;;5051285;28;20021;-64
2023/02/11 08:54:19;;;;;;;155.40;134.65;;;435.30;1305.60;;;;;;5047420;28;20048;-62
2023/02/11 08:56:45;;;;;;;145.13;128.48;;;436.00;1254.40;;;;;;5051084;28;20025;-62
2023/02/11 08:59:13;;;;;;;146.23;130.40;;;435.30;1280.00;;;;;;5050370;28;20032;-62
2023/02/11 09:01:39;;;;;;;148.00;131.85;;;435.60;1254.40;;;;;;5050924;28;20021;-62
2023/02/11 09:04:04;;;;;;;170.60;142.65;;;435.60;1254.40;;;;;;5051028;28;20032;-63
2023/02/11 09:06:31;;;;;;;147.98;130.73;;;410.50;1280.00;;;;;;5050891;28;20475;-62
2023/02/11 09:08:57;;;;;;;168.25;143.50;;;410.50;1280.00;;;;;;5050639;28;20390;-62
2023/02/11 09:11:29;;;;;;;155.85;133.75;;;435.20;1254.40;;;;;;5049602;28;20029;-64
2023/02/11 09:13:55;;;;;;;125.57;108.00;;;410.00;1280.00;;;;;;5050751;28;20036;-61
2023/02/11 09:16:23;;;;;;;94.00;79.72;;;409.80;1280.00;;;;;;5050650;28;20025;-61
2023/02/11 09:18:50;;;;;;;97.63;81.15;;;409.60;1305.60;;;;;;5050866;28;20029;-61
2023/02/11 09:21:16;;;;;;;104.28;92.78;;;409.80;1280.00;;;;;;5050763;28;20095;-61
2023/02/11 09:23:43;;;;;;;130.23;110.97;;;410.40;1254.40;;;;;;5050380;28;20364;-62
2023/02/11 09:26:19;;;;;;;122.28;106.13;;;435.60;1228.80;;;;;;5050124;28;20471;-62
2023/02/11 09:28:46;;;;;;;103.20;89.63;;;435.30;1228.80;;;;;;5050558;28;20025;-62
2023/02/11 09:31:15;;;;;;;102.15;90.95;;;461.20;1228.80;;;;;;5050529;28;20043;-61
2023/02/11 09:33:46;;;;;;;99.97;85.20;;;460.90;1203.20;;;;;;5050298;28;20035;-62
2023/02/11 09:36:17;;;;;;;102.55;89.45;;;410.20;1254.40;;;;;;5050280;28;20052;-62
2023/02/11 09:38:43;;;;;;;100.70;87.88;;;359.10;1305.60;;;;;;5050058;28;20497;-62
2023/02/11 09:41:24;;;;;;;102.28;86.93;;;358.90;1331.20;;;;;;5050136;28;20029;-61
2023/02/11 09:43:59;;;;;;;89.88;76.00;;;359.00;1356.80;;;;;;5050110;28;20044;-61
2023/02/11 09:46:29;;;;;;;89.95;74.38;;;308.10;1382.40;;;;;;5050548;28;20021;-61
2023/02/11 09:48:55;;;;;;;98.57;76.97;;;282.40;1433.60;;;;;;5050402;28;20044;-60
2023/02/11 09:51:46;;;;;;;97.68;70.97;;;281.60;1484.80;;;;;;5049838;28;20021;-60
2023/02/11 09:54:26;;;;;;;105.43;78.80;;;282.00;1484.80;;;;;;5050487;28;20064;-59
2023/02/11 09:56:51;;;;;;;135.43;100.47;;;282.30;1484.80;;;;;;5049871;28;20055;-60
2023/02/11 09:59:17;;;;;;;78.07;54.95;;;256.70;1510.40;;;;;;5049931;28;20029;-60
2023/02/11 10:01:56;;;;;;;88.63;62.67;;;256.60;1510.40;;;;;;5049901;28;20670;-60
2023/02/11 10:04:28;;;;;;;86.95;62.90;;;256.10;1536.00;;;;;;5049779;28;20033;-60
2023/02/11 10:06:56;;;;;;;52.85;38.60;;;231.30;1561.60;;;;;;5050233;28;20104;-60
2023/02/11 10:09:56;;;;;;;67.47;50.30;;;230.80;1587.20;;;;;;5050075;28;20025;-60
2023/02/11 10:12:21;;;;;;;49.35;36.13;;;230.90;1612.80;;;;;;5049782;28;20483;-60
2023/02/11 10:15:00;;;;;;;65.32;46.75;;;230.40;1587.20;;;;;;5049531;28;20032;-60
2023/02/11 10:17:29;;;;;;;92.80;66.85;;;205.20;1638.40;;;;;;5049501;28;20061;-61
2023/02/11 10:20:09;;;;;;;59.25;42.53;;;205.50;1638.40;;;;;;5049943;28;20106;-60
2023/02/11 10:22:44;;;;;;;35.33;25.60;;;205.60;1612.80;;;;;;5048427;28;20769;-60
2023/02/11 10:25:36;;;;;;;47.70;36.53;;;205.40;1638.40;;;;;;5049655;28;20386;-60
2023/02/11 10:28:16;;;;;;;57.33;35.05;;;205.60;1612.80;;;;;;5049552;28;20043;-60
2023/02/11 10:30:59;;;;;;;270.08;161.27;;;205.70;1612.80;;;;;;5048948;28;20029;-59
2023/02/11 10:33:53;;;;;;;59.17;38.90;;;230.60;1638.40;;;;;;5049695;28;20021;-61
2023/02/11 10:36:22;;;;;;;33.03;23.10;;;230.40;1612.80;;;;;;5049311;28;20075;-60
2023/02/11 10:38:48;;;;;;;45.50;29.73;;;205.40;1689.60;;;;;;5049162;28;20032;-60
2023/02/11 10:41:21;;;;;;;35.15;23.20;;;205.50;1664.00;;;;;;5048908;28;20021;-59
2023/02/11 10:43:48;;;;;;;74.30;52.00;;;205.40;1612.80;;;;;;5037326;28;20077;-60
2023/02/11 10:46:19;;;;;;;80.43;55.22;;;179.80;1740.80;;;;;;5037355;28;20025;-59
2023/02/11 10:48:49;;;;;;;83.20;57.42;;;179.60;1817.60;;;;;;5036415;28;20021;-60
2023/02/11 10:51:24;;;;;;;79.88;56.58;;;180.00;1817.60;;;;;;5036470;28;20053;-59
2023/02/11 10:54:18;;;;;;;74.22;49.05;;;180.00;1792.00;;;;;;5036127;28;20033;-59
2023/02/11 10:56:49;;;;;;;75.95;52.58;;;180.00;1792.00;;;;;;5035905;28;20013;-60
2023/02/11 10:59:38;;;;;;;66.18;48.70;;;179.80;1792.00;;;;;;5037776;28;20546;-58
2023/02/11 11:02:23;;;;;;;88.90;53.70;;;180.00;1792.00;;;;;;5036289;28;20029;-58
2023/02/11 11:04:55;;;;;;;72.88;51.35;;;179.60;1792.00;;;;;;5036989;28;20100;-59
2023/02/11 11:07:31;;;;;;;86.47;56.35;;;154.50;1868.80;;;;;;5036590;28;20036;-58
2023/02/11 11:10:23;;;;;;;72.65;50.25;;;154.10;1894.40;;;;;;5039160;28;20032;-60
2023/02/11 11:12:49;;;;;;;81.40;51.90;;;154.50;1894.40;;;;;;5039137;28;20029;-59
2023/02/11 11:15:27;;;;;;;78.03;53.97;;;154.30;1894.40;;;;;;5048355;28;20029;-59
2023/02/11 11:18:13;;;;;;;78.05;50.50;;;154.40;1894.40;;;;;;5042423;28;20032;-59
2023/02/11 11:21:00;;;;;;;64.32;42.05;;;179.30;1868.80;;;;;;5048408;28;20068;-59
2023/02/11 11:23:28;;;;;;;77.50;51.58;;;154.10;1894.40;;;;;;5048187;28;20489;-58
2023/02/11 11:26:02;;;;;;;70.47;47.35;;;154.50;1894.40;;;;;;5048530;28;20083;-59
2023/02/11 11:28:30;;;;;;;68.35;43.00;;;154.50;1868.80;;;;;;5048402;28;20083;-59
2023/02/11 11:30:58;;;;;;;68.55;45.97;;;154.40;1868.80;;;;;;5048512;28;20025;-60
2023/02/11 11:33:27;;;;;;;66.65;41.00;;;153.90;1894.40;;;;;;5048410;28;20115;-59
2023/02/11 11:36:11;;;;;;;68.80;44.42;;;154.20;1894.40;;;;;;5048019;28;20052;-59
2023/02/11 11:38:44;;;;;;;81.45;53.08;;;153.90;1894.40;;;;;;5048474;28;20017;-59
2023/02/11 11:41:16;;;;;;;82.75;47.25;;;154.40;1894.40;;;;;;5048219;28;20308;-58
2023/02/11 11:44:00;;;;;;;67.90;43.33;;;154.40;1894.40;;;;;;5048284;28;20071;-59
2023/02/11 11:46:36;;;;;;;72.82;51.22;;;154.50;1894.40;;;;;;5048388;28;20100;-58
2023/02/11 11:49:36;;;;;;;57.28;38.33;;;179.20;1868.80;;;;;;5047953;28;20021;-59
2023/02/11 11:52:07;;;;;;;60.42;38.80;;;153.80;1894.40;;;;;;5048115;28;20078;-59
2023/02/11 11:54:33;;;;;;;81.10;47.92;;;153.90;1894.40;;;;;;5048271;28;20021;-58
2023/02/11 11:57:05;;;;;;;62.13;41.05;;;154.30;1868.80;;;;;;5047808;28;20086;-59
2023/02/11 11:59:31;;;;;;;79.75;46.75;;;154.50;1843.20;;;;;;5041687;28;20124;-58
2023/02/11 12:02:33;;;;;;;136.32;78.80;;;154.00;1868.80;;;;;;5035413;28;20037;-59
2023/02/11 12:05:02;;;;;;;72.38;41.85;;;154.40;1843.20;;;;;;5035170;28;20507;-60
2023/02/11 12:07:39;;;;;;;57.72;36.83;;;179.20;1843.20;;;;;;5037080;28;20518;-58
2023/02/11 12:10:05;;;;;;;57.67;36.63;;;154.30;1843.20;;;;;;5036284;28;20036;-58
2023/02/11 12:12:37;;;;;;;49.60;33.70;;;154.40;1868.80;;;;;;5036433;28;20021;-59
2023/02/11 12:15:24;;;;;;;56.33;34.33;;;154.40;1843.20;;;;;;5047220;28;20045;-59
2023/02/11 12:18:02;;;;;;;61.10;41.03;;;154.50;1843.20;;;;;;5047765;28;20025;-59